New Harbor, ME

43° 52' 34"N, 69° 29' 40"W, Elevation 65 ft.
Eastern Time

Hourly observations for the last 72 hours

Date Time Temperature (°F) Humi-
dity

(%)
Wind
(mph)
Pressure Rain (in) Sun
(W/m2)
ET
(in)
Air Dew 6 Hour 1 Hr 3 Hr 6 Hr Day
Alt
(in)
Sea
Level

(mb)
Max Min
21 20:00 27.6 13.9 56 SW 7 G 17 30.23 1023.7 0.00 0 0.041
21 19:00 25.6 12.9 26.9 22.8 58 SSW 4 G 12 30.26 1024.7 0.00 0 0.040
21 18:00 22.9 11.1 60 WSW 4 G 9 30.28 1025.5 0.00 0 0.039
21 17:00 23.3 8.7 53 SW 2 G 10 30.30 1025.9 0.00 12 0.038
21 16:00 24.4 10.1 54 SSW 3 G 9 30.31 1026.5 0.00 158 0.034
21 15:00 24.4 8.0 49 SW 6 G 13 30.33 1027.1 0.00 206 0.029
21 14:00 25.1 5.7 43 S 7 G 12 30.34 1027.4 0.00 438 0.022
21 13:00 25.4 0.3 26.6 3.2 33 SSE 3 G 11 30.36 1028.2 0.00 570 0.015
21 12:00 24.0 0.3 35 SW 2 G 6 30.40 1029.5 0.00 561 0.008
21 11:00 20.1 -0.9 39 NW 3 G 7 30.42 1030.1 0.00 584 0.003
21 10:00 14.7 -0.6 50 WNW 3 G 5 30.43 1030.6 0.00 47 0.002
21 09:00 11.1 -1.2 57 NW 4 G 9 30.45 1031.1 0.00 42 0.001
21 08:00 6.2 -1.5 70 NNW 1 G 3 30.44 1030.9 0.00 33 0.001
21 07:00 3.2 -3.2 9.1 2.9 74 NNW 2 G 5 30.43 1030.6 0.00 18 0.001
21 06:00 3.1 -3.6 73 NNW 1 G 2 30.43 1030.7 0.00 0 0.001
21 05:00 3.8 -3.2 72 NNW 1 G 3 30.44 1030.7 0.00 0 0.001
21 04:00 3.9 -3.7 70 NNW 1 G 4 30.43 1030.6 0.00 0 0.001
21 03:00 5.5 -3.4 66 Calm 30.42 1030.3 0.00 0 0.001
21 02:00 7.7 -3.7 59 NNW 2 G 4 30.41 1029.9 0.00 0 0.001
21 01:00 9.1 -3.8 19.0 9.1 55 NNW 2 G 5 30.40 1029.5 0.00 0 0.000
21 00:00 11.2 -3.4 51 NNW 6 G 11 30.40 1029.3 0.01 0 0.051
20 23:00 12.7 -3.3 48 NNW 7 G 15 30.40 1029.4 0.01 0 0.050
20 22:00 14.0 -2.1 48 NNW 4 G 12 30.40 1029.4 0.01 0 0.049
20 21:00 15.6 -1.5 46 NNW 5 G 11 30.39 1029.3 0.01 0 0.048
20 20:00 17.4 1.0 48 NNW 3 G 13 30.38 1028.9 0.01 0 0.047
20 19:00 19.0 3.8 26.9 19.0 51 NNW 2 G 9 30.37 1028.4 0.01 0.01 0.01 0 0.046
20 18:00 20.4 4.7 50 NW 4 G 10 30.34 1027.6 0.01 0 0.045
20 17:00 22.4 4.3 45 NNW 3 G 9 30.31 1026.5 0.01 0.01 11 0.044
20 16:00 25.1 4.7 41 W 5 G 13 30.29 1025.9 0.00 171 0.040
20 15:00 25.0 5.1 42 WSW 4 G 12 30.29 1025.7 0.00 225 0.036
20 14:00 24.3 4.5 42 WNW 4 G 12 30.30 1026.0 0.00 179 0.029
20 13:00 25.2 4.2 27.1 11.9 40 WSW 8 G 14 30.32 1026.7 0.00 624 0.022
20 12:00 23.9 4.6 43 NNW 3 G 8 30.34 1027.5 0.00 570 0.015
20 11:00 21.7 6.3 51 WNW 5 G 14 30.38 1028.7 0.00 575 0.009
20 10:00 18.1 3.4 52 WNW 4 G 13 30.39 1029.2 0.00 47 0.008
20 09:00 15.7 2.0 54 W 4 G 12 30.39 1029.2 0.00 40 0.007
20 08:00 13.1 0.3 56 W 4 G 8 30.39 1029.1 0.00 32 0.006
20 07:00 11.9 -0.4 18.7 11.8 57 N 4 G 10 30.37 1028.3 0.00 16 0.006
20 06:00 12.6 0.2 57 WNW 2 G 10 30.34 1027.6 0.00 0 0.005
20 05:00 13.6 -0.8 52 NNW 8 G 15 30.33 1027.0 0.00 0 0.004
20 04:00 14.4 0.4 53 NW 7 G 14 30.31 1026.5 0.00 0 0.003
20 03:00 15.7 1.2 52 NNW 5 G 14 30.29 1025.9 0.00 0 0.002
20 02:00 17.3 3.5 54 N 7 G 13 30.28 1025.6 0.00 0 0.001
20 01:00 18.7 4.4 27.2 18.6 53 N 3 G 10 30.28 1025.4 0.00 0 0.000
20 00:00 20.3 4.2 49 NNW 7 G 13 30.26 1024.9 0.00 0 0.056
19 23:00 22.9 6.1 48 W 2 G 13 30.23 1023.8 0.00 0 0.054
19 22:00 24.2 5.9 45 WNW 6 G 18 30.21 1023.1 0.00 0 0.052
19 21:00 25.3 6.4 44 NW 5 G 18 30.19 1022.2 0.00 0 0.050
19 20:00 26.5 7.5 44 WNW 7 G 13 30.16 1021.5 0.00 0 0.048
19 19:00 27.2 10.6 38.8 27.1 49 NW 4 G 12 30.15 1021.0 0.00 0 0.047
19 18:00 28.4 11.2 48 NW 7 G 15 30.13 1020.2 0.00 0 0.046
19 17:00 29.8 11.5 46 WNW 4 G 14 30.09 1019.1 0.00 9 0.044
19 16:00 32.5 13.0 44 WNW 10 G 20 30.06 1017.8 0.00 156 0.039
19 15:00 35.3 16.6 46 NNW 5 G 32 30.01 1016.2 0.00 281 0.033
19 14:00 37.0 16.6 43 W 9 G 24 29.98 1015.3 0.00 285 0.025
19 13:00 38.6 24.7 41.1 31.4 57 WNW 10 G 22 29.95 1014.2 0.00 714 0.017
19 12:00 41.0 26.9 57 WNW 8 G 14 29.93 1013.6 0.00 777 0.008
19 11:00 37.6 29.1 71 WSW 6 G 14 29.94 1013.9 0.00 272 0.002
19 10:00 37.4 30.9 77 WSW 6 G 13 29.92 1013.4 0.00 98 0.001
19 09:00 34.6 30.3 84 W 3 G 10 29.93 1013.5 0.00 37 0.000
19 08:00 32.5 30.2 91 SW 2 G 8 29.92 1013.4 0.00 28 0.000
19 07:00 31.4 29.9 33.5 30.8 94 WNW 6 G 20 29.90 1012.6 0.00 16 0.000
19 06:00 30.9 29.4 94 NW 3 G 11 29.88 1012.0 0.00 0 0.000
19 05:00 31.1 29.6 94 WSW 3 G 5 29.85 1011.0 0.00 0 0.000
19 04:00 31.2 29.7 94 W 4 G 12 29.84 1010.7 0.00 0 0.000
19 03:00 31.3 29.8 94 WNW 2 G 7 29.82 1009.7 0.00 0 0.000
19 02:00 32.3 30.8 94 WNW 3 G 8 29.81 1009.5 0.00 0 0.000
19 01:00 33.4 31.9 36.6 33.4 94 N 1 G 3 29.79 1008.8 0.03 0.23 0.00 0 0.000
19 00:00 35.6 34.0 94 WNW 2 G 5 29.82 1009.9 0.35 0 0.021
18 23:00 36.5 34.9 94 ENE 1 G 7 29.83 1010.3 0.03 0.35 0 0.021
18 22:00 36.2 34.6 94 E 2 G 3 29.90 1012.5 0.07 0.20 0.32 0 0.021
18 21:00 35.9 34.3 94 ESE 3 G 7 29.97 1014.9 0.09 0.25 0 0.021

Data generated by WxSolution Version 1.9.1.8, Build 2020.02.16.